sensor_id;sensor_type;location;lat;lon;timestamp;P1;durP1;ratioP1;P2;durP2;ratioP2
43817;SDS011;29868;47.360;18.984;2023-09-19T00:00:14;13.98;;;6.07;;
43817;SDS011;29868;47.360;18.984;2023-09-19T00:02:39;12.18;;;6.47;;
43817;SDS011;29868;47.360;18.984;2023-09-19T00:05:05;11.05;;;6.00;;
43817;SDS011;29868;47.360;18.984;2023-09-19T00:07:30;10.18;;;6.50;;
43817;SDS011;29868;47.360;18.984;2023-09-19T00:09:56;8.43;;;6.25;;
43817;SDS011;29868;47.360;18.984;2023-09-19T00:12:21;10.18;;;6.35;;
43817;SDS011;29868;47.360;18.984;2023-09-19T00:14:47;12.23;;;6.20;;
43817;SDS011;29868;47.360;18.984;2023-09-19T00:17:12;10.52;;;5.95;;
43817;SDS011;29868;47.360;18.984;2023-09-19T00:19:38;8.20;;;6.20;;
43817;SDS011;29868;47.360;18.984;2023-09-19T00:22:03;11.55;;;6.38;;
43817;SDS011;29868;47.360;18.984;2023-09-19T00:24:29;8.73;;;5.88;;
43817;SDS011;29868;47.360;18.984;2023-09-19T00:26:55;10.75;;;6.22;;
43817;SDS011;29868;47.360;18.984;2023-09-19T00:29:21;11.50;;;6.15;;
43817;SDS011;29868;47.360;18.984;2023-09-19T00:31:48;7.38;;;5.75;;
43817;SDS011;29868;47.360;18.984;2023-09-19T00:34:13;12.70;;;6.30;;
43817;SDS011;29868;47.360;18.984;2023-09-19T00:36:39;9.30;;;6.40;;
43817;SDS011;29868;47.360;18.984;2023-09-19T00:39:05;9.07;;;6.65;;
43817;SDS011;29868;47.360;18.984;2023-09-19T00:41:34;11.45;;;6.13;;
43817;SDS011;29868;47.360;18.984;2023-09-19T00:44:03;10.90;;;6.80;;
43817;SDS011;29868;47.360;18.984;2023-09-19T00:46:29;12.43;;;6.53;;
43817;SDS011;29868;47.360;18.984;2023-09-19T00:48:57;12.95;;;6.53;;
43817;SDS011;29868;47.360;18.984;2023-09-19T00:51:24;12.43;;;6.65;;
43817;SDS011;29868;47.360;18.984;2023-09-19T00:53:51;13.38;;;8.00;;
43817;SDS011;29868;47.360;18.984;2023-09-19T00:56:17;9.57;;;6.18;;
43817;SDS011;29868;47.360;18.984;2023-09-19T00:58:44;11.10;;;6.55;;
43817;SDS011;29868;47.360;18.984;2023-09-19T01:01:11;12.70;;;6.70;;
43817;SDS011;29868;47.360;18.984;2023-09-19T01:03:39;8.90;;;6.57;;
43817;SDS011;29868;47.360;18.984;2023-09-19T01:06:06;10.73;;;6.78;;
43817;SDS011;29868;47.360;18.984;2023-09-19T01:08:33;9.43;;;6.70;;
43817;SDS011;29868;47.360;18.984;2023-09-19T01:11:01;13.00;;;7.00;;
43817;SDS011;29868;47.360;18.984;2023-09-19T01:14:13;11.52;;;6.78;;
43817;SDS011;29868;47.360;18.984;2023-09-19T01:17:34;9.00;;;6.82;;
43817;SDS011;29868;47.360;18.984;2023-09-19T01:31:03;10.43;;;7.15;;
43817;SDS011;29868;47.360;18.984;2023-09-19T01:36:29;10.30;;;7.07;;
43817;SDS011;29868;47.360;18.984;2023-09-19T01:38:59;11.10;;;7.50;;
43817;SDS011;29868;47.360;18.984;2023-09-19T01:47:17;12.10;;;6.82;;
43817;SDS011;29868;47.360;18.984;2023-09-19T01:50:11;12.00;;;7.50;;
43817;SDS011;29868;47.360;18.984;2023-09-19T01:52:38;10.20;;;7.38;;
43817;SDS011;29868;47.360;18.984;2023-09-19T01:55:10;12.40;;;7.57;;
43817;SDS011;29868;47.360;18.984;2023-09-19T01:57:51;15.57;;;7.60;;
43817;SDS011;29868;47.360;18.984;2023-09-19T02:00:24;11.30;;;6.97;;
43817;SDS011;29868;47.360;18.984;2023-09-19T02:02:54;11.05;;;7.30;;
43817;SDS011;29868;47.360;18.984;2023-09-19T02:05:23;10.40;;;7.60;;
43817;SDS011;29868;47.360;18.984;2023-09-19T02:07:50;14.25;;;7.57;;
43817;SDS011;29868;47.360;18.984;2023-09-19T02:10:17;9.80;;;7.80;;
43817;SDS011;29868;47.360;18.984;2023-09-19T02:12:43;14.48;;;7.13;;
43817;SDS011;29868;47.360;18.984;2023-09-19T02:15:09;10.68;;;7.72;;
43817;SDS011;29868;47.360;18.984;2023-09-19T02:17:35;13.68;;;7.53;;
43817;SDS011;29868;47.360;18.984;2023-09-19T02:20:00;11.27;;;7.60;;
43817;SDS011;29868;47.360;18.984;2023-09-19T02:22:28;9.80;;;7.25;;
43817;SDS011;29868;47.360;18.984;2023-09-19T02:24:54;18.48;;;7.63;;
43817;SDS011;29868;47.360;18.984;2023-09-19T02:27:23;13.27;;;7.97;;
43817;SDS011;29868;47.360;18.984;2023-09-19T02:29:48;11.38;;;7.55;;
43817;SDS011;29868;47.360;18.984;2023-09-19T02:32:14;10.10;;;7.32;;
43817;SDS011;29868;47.360;18.984;2023-09-19T02:34:40;9.77;;;7.85;;
43817;SDS011;29868;47.360;18.984;2023-09-19T02:37:07;11.00;;;7.30;;
43817;SDS011;29868;47.360;18.984;2023-09-19T02:39:33;14.13;;;7.70;;
43817;SDS011;29868;47.360;18.984;2023-09-19T02:41:59;11.98;;;7.68;;
43817;SDS011;29868;47.360;18.984;2023-09-19T02:44:25;13.05;;;7.75;;
43817;SDS011;29868;47.360;18.984;2023-09-19T02:46:51;11.15;;;8.02;;
43817;SDS011;29868;47.360;18.984;2023-09-19T02:49:16;10.65;;;7.70;;
43817;SDS011;29868;47.360;18.984;2023-09-19T02:51:43;12.80;;;7.90;;
43817;SDS011;29868;47.360;18.984;2023-09-19T02:54:09;12.27;;;7.57;;
43817;SDS011;29868;47.360;18.984;2023-09-19T02:56:35;12.50;;;8.30;;
43817;SDS011;29868;47.360;18.984;2023-09-19T02:59:02;12.45;;;7.65;;
43817;SDS011;29868;47.360;18.984;2023-09-19T03:01:28;12.25;;;7.85;;
43817;SDS011;29868;47.360;18.984;2023-09-19T03:03:54;10.25;;;8.18;;
43817;SDS011;29868;47.360;18.984;2023-09-19T03:06:19;12.43;;;7.95;;
43817;SDS011;29868;47.360;18.984;2023-09-19T03:08:45;12.38;;;8.10;;
43817;SDS011;29868;47.360;18.984;2023-09-19T03:11:14;10.48;;;8.23;;
43817;SDS011;29868;47.360;18.984;2023-09-19T03:13:40;11.73;;;7.75;;
43817;SDS011;29868;47.360;18.984;2023-09-19T03:16:06;14.20;;;8.13;;
43817;SDS011;29868;47.360;18.984;2023-09-19T03:18:35;11.10;;;7.90;;
43817;SDS011;29868;47.360;18.984;2023-09-19T03:21:00;10.77;;;7.82;;
43817;SDS011;29868;47.360;18.984;2023-09-19T03:23:26;15.48;;;7.80;;
43817;SDS011;29868;47.360;18.984;2023-09-19T03:25:52;10.43;;;7.15;;
43817;SDS011;29868;47.360;18.984;2023-09-19T03:28:18;9.85;;;7.78;;
43817;SDS011;29868;47.360;18.984;2023-09-19T03:30:45;11.27;;;8.57;;
43817;SDS011;29868;47.360;18.984;2023-09-19T03:33:11;12.95;;;7.97;;
43817;SDS011;29868;47.360;18.984;2023-09-19T03:35:37;12.95;;;8.18;;
43817;SDS011;29868;47.360;18.984;2023-09-19T03:38:04;11.15;;;8.55;;
43817;SDS011;29868;47.360;18.984;2023-09-19T03:40:30;13.13;;;7.80;;
43817;SDS011;29868;47.360;18.984;2023-09-19T03:42:56;17.42;;;9.07;;
43817;SDS011;29868;47.360;18.984;2023-09-19T03:45:25;13.65;;;8.05;;
43817;SDS011;29868;47.360;18.984;2023-09-19T03:47:50;12.88;;;8.88;;
43817;SDS011;29868;47.360;18.984;2023-09-19T03:50:16;11.20;;;8.02;;
43817;SDS011;29868;47.360;18.984;2023-09-19T03:52:43;10.48;;;8.38;;
43817;SDS011;29868;47.360;18.984;2023-09-19T03:55:08;12.65;;;8.07;;
43817;SDS011;29868;47.360;18.984;2023-09-19T03:57:35;12.98;;;8.85;;
43817;SDS011;29868;47.360;18.984;2023-09-19T04:00:01;12.43;;;8.50;;
43817;SDS011;29868;47.360;18.984;2023-09-19T04:02:27;13.32;;;8.50;;
43817;SDS011;29868;47.360;18.984;2023-09-19T04:04:58;10.48;;;8.27;;
43817;SDS011;29868;47.360;18.984;2023-09-19T04:07:23;13.57;;;8.90;;
43817;SDS011;29868;47.360;18.984;2023-09-19T04:09:51;11.77;;;8.35;;
43817;SDS011;29868;47.360;18.984;2023-09-19T04:12:18;12.90;;;8.63;;
43817;SDS011;29868;47.360;18.984;2023-09-19T04:14:44;12.35;;;8.90;;
43817;SDS011;29868;47.360;18.984;2023-09-19T04:17:09;11.70;;;9.30;;
43817;SDS011;29868;47.360;18.984;2023-09-19T04:19:35;14.35;;;9.65;;
43817;SDS011;29868;47.360;18.984;2023-09-19T04:22:01;12.02;;;8.95;;
43817;SDS011;29868;47.360;18.984;2023-09-19T04:24:27;13.35;;;9.65;;
43817;SDS011;29868;47.360;18.984;2023-09-19T04:26:52;13.00;;;9.15;;
43817;SDS011;29868;47.360;18.984;2023-09-19T04:29:17;17.25;;;10.23;;
43817;SDS011;29868;47.360;18.984;2023-09-19T04:31:44;12.68;;;9.63;;
43817;SDS011;29868;47.360;18.984;2023-09-19T04:34:11;12.60;;;9.38;;
43817;SDS011;29868;47.360;18.984;2023-09-19T04:36:41;14.13;;;9.35;;
43817;SDS011;29868;47.360;18.984;2023-09-19T04:39:06;14.93;;;10.02;;
43817;SDS011;29868;47.360;18.984;2023-09-19T04:41:33;14.48;;;9.85;;
43817;SDS011;29868;47.360;18.984;2023-09-19T04:43:59;15.90;;;10.57;;
43817;SDS011;29868;47.360;18.984;2023-09-19T04:46:25;14.55;;;9.73;;
43817;SDS011;29868;47.360;18.984;2023-09-19T04:48:50;15.20;;;10.40;;
43817;SDS011;29868;47.360;18.984;2023-09-19T04:51:16;13.65;;;10.10;;
43817;SDS011;29868;47.360;18.984;2023-09-19T04:53:41;14.52;;;9.43;;
43817;SDS011;29868;47.360;18.984;2023-09-19T04:56:07;9.95;;;4.93;;
43817;SDS011;29868;47.360;18.984;2023-09-19T04:58:33;3.72;;;1.77;;
43817;SDS011;29868;47.360;18.984;2023-09-19T05:00:58;4.95;;;1.90;;
43817;SDS011;29868;47.360;18.984;2023-09-19T05:03:24;5.18;;;1.63;;
43817;SDS011;29868;47.360;18.984;2023-09-19T05:05:50;2.97;;;1.60;;
43817;SDS011;29868;47.360;18.984;2023-09-19T05:08:15;3.25;;;1.50;;
43817;SDS011;29868;47.360;18.984;2023-09-19T05:10:41;3.20;;;1.33;;
43817;SDS011;29868;47.360;18.984;2023-09-19T05:13:06;2.38;;;1.30;;
43817;SDS011;29868;47.360;18.984;2023-09-19T05:15:35;2.03;;;1.23;;
43817;SDS011;29868;47.360;18.984;2023-09-19T05:18:01;2.63;;;1.10;;
43817;SDS011;29868;47.360;18.984;2023-09-19T05:20:28;4.30;;;1.25;;
43817;SDS011;29868;47.360;18.984;2023-09-19T05:23:03;1.45;;;0.80;;
43817;SDS011;29868;47.360;18.984;2023-09-19T05:25:36;2.67;;;0.90;;
43817;SDS011;29868;47.360;18.984;2023-09-19T05:28:03;1.52;;;0.80;;
43817;SDS011;29868;47.360;18.984;2023-09-19T05:30:30;4.15;;;0.98;;
43817;SDS011;29868;47.360;18.984;2023-09-19T05:32:56;2.30;;;0.85;;
43817;SDS011;29868;47.360;18.984;2023-09-19T05:35:22;1.40;;;0.85;;
43817;SDS011;29868;47.360;18.984;2023-09-19T05:37:50;1.33;;;1.00;;
43817;SDS011;29868;47.360;18.984;2023-09-19T05:40:19;6.00;;;2.22;;
43817;SDS011;29868;47.360;18.984;2023-09-19T05:42:45;1.38;;;0.70;;
43817;SDS011;29868;47.360;18.984;2023-09-19T05:45:11;1.73;;;0.90;;
43817;SDS011;29868;47.360;18.984;2023-09-19T05:47:38;3.17;;;0.80;;
43817;SDS011;29868;47.360;18.984;2023-09-19T05:50:05;2.33;;;0.80;;
43817;SDS011;29868;47.360;18.984;2023-09-19T05:52:32;3.78;;;0.90;;
43817;SDS011;29868;47.360;18.984;2023-09-19T05:54:58;4.20;;;1.00;;
43817;SDS011;29868;47.360;18.984;2023-09-19T05:57:23;1.40;;;0.85;;
43817;SDS011;29868;47.360;18.984;2023-09-19T05:59:49;1.67;;;0.90;;
43817;SDS011;29868;47.360;18.984;2023-09-19T06:02:15;2.08;;;1.00;;
43817;SDS011;29868;47.360;18.984;2023-09-19T06:04:41;1.38;;;0.80;;
43817;SDS011;29868;47.360;18.984;2023-09-19T06:07:06;1.17;;;0.70;;
43817;SDS011;29868;47.360;18.984;2023-09-19T06:09:32;4.70;;;1.20;;
43817;SDS011;29868;47.360;18.984;2023-09-19T06:11:57;2.78;;;1.10;;
43817;SDS011;29868;47.360;18.984;2023-09-19T06:14:25;1.42;;;1.00;;
43817;SDS011;29868;47.360;18.984;2023-09-19T06:16:50;3.65;;;1.10;;
43817;SDS011;29868;47.360;18.984;2023-09-19T06:19:19;2.33;;;1.10;;
43817;SDS011;29868;47.360;18.984;2023-09-19T06:21:48;3.10;;;1.13;;
43817;SDS011;29868;47.360;18.984;2023-09-19T06:24:14;3.03;;;1.00;;
43817;SDS011;29868;47.360;18.984;2023-09-19T06:26:39;2.08;;;1.00;;
43817;SDS011;29868;47.360;18.984;2023-09-19T06:29:05;2.13;;;0.90;;
43817;SDS011;29868;47.360;18.984;2023-09-19T06:31:32;2.53;;;1.00;;
43817;SDS011;29868;47.360;18.984;2023-09-19T06:33:58;1.60;;;0.90;;
43817;SDS011;29868;47.360;18.984;2023-09-19T06:36:24;2.50;;;1.13;;
43817;SDS011;29868;47.360;18.984;2023-09-19T06:38:49;1.58;;;1.00;;
43817;SDS011;29868;47.360;18.984;2023-09-19T06:41:16;3.30;;;1.00;;
43817;SDS011;29868;47.360;18.984;2023-09-19T06:43:42;1.50;;;0.90;;
43817;SDS011;29868;47.360;18.984;2023-09-19T06:46:08;1.40;;;0.90;;
43817;SDS011;29868;47.360;18.984;2023-09-19T06:48:34;1.25;;;0.90;;
43817;SDS011;29868;47.360;18.984;2023-09-19T06:51:01;1.40;;;1.10;;
43817;SDS011;29868;47.360;18.984;2023-09-19T06:53:30;2.85;;;1.10;;
43817;SDS011;29868;47.360;18.984;2023-09-19T06:55:57;3.55;;;1.30;;
43817;SDS011;29868;47.360;18.984;2023-09-19T06:58:22;1.98;;;1.08;;
43817;SDS011;29868;47.360;18.984;2023-09-19T07:00:48;1.88;;;1.10;;
43817;SDS011;29868;47.360;18.984;2023-09-19T07:03:15;1.40;;;1.10;;
43817;SDS011;29868;47.360;18.984;2023-09-19T07:05:43;2.10;;;0.93;;
43817;SDS011;29868;47.360;18.984;2023-09-19T07:08:09;2.35;;;1.33;;
43817;SDS011;29868;47.360;18.984;2023-09-19T07:10:41;2.55;;;1.20;;
43817;SDS011;29868;47.360;18.984;2023-09-19T07:13:13;1.83;;;1.10;;
43817;SDS011;29868;47.360;18.984;2023-09-19T07:15:42;2.00;;;1.00;;
43817;SDS011;29868;47.360;18.984;2023-09-19T07:18:12;1.75;;;1.10;;
43817;SDS011;29868;47.360;18.984;2023-09-19T07:20:39;1.42;;;0.80;;
43817;SDS011;29868;47.360;18.984;2023-09-19T07:23:10;1.98;;;0.90;;
43817;SDS011;29868;47.360;18.984;2023-09-19T07:25:40;3.20;;;1.02;;
43817;SDS011;29868;47.360;18.984;2023-09-19T07:28:05;1.83;;;1.20;;
43817;SDS011;29868;47.360;18.984;2023-09-19T07:30:31;1.55;;;0.93;;
43817;SDS011;29868;47.360;18.984;2023-09-19T07:32:56;1.65;;;0.90;;
43817;SDS011;29868;47.360;18.984;2023-09-19T07:35:22;1.67;;;0.98;;
43817;SDS011;29868;47.360;18.984;2023-09-19T07:37:47;2.38;;;1.10;;
43817;SDS011;29868;47.360;18.984;2023-09-19T07:40:14;1.30;;;1.00;;
43817;SDS011;29868;47.360;18.984;2023-09-19T07:42:40;3.33;;;1.13;;
43817;SDS011;29868;47.360;18.984;2023-09-19T07:45:08;2.72;;;1.10;;
43817;SDS011;29868;47.360;18.984;2023-09-19T07:47:34;2.72;;;1.20;;
43817;SDS011;29868;47.360;18.984;2023-09-19T07:50:01;3.35;;;1.10;;
43817;SDS011;29868;47.360;18.984;2023-09-19T07:52:28;3.17;;;1.13;;
43817;SDS011;29868;47.360;18.984;2023-09-19T07:54:54;2.33;;;1.10;;
43817;SDS011;29868;47.360;18.984;2023-09-19T07:57:20;3.42;;;1.70;;
43817;SDS011;29868;47.360;18.984;2023-09-19T07:59:45;4.00;;;1.20;;
43817;SDS011;29868;47.360;18.984;2023-09-19T08:02:11;3.25;;;1.17;;
43817;SDS011;29868;47.360;18.984;2023-09-19T08:04:44;2.17;;;1.17;;
43817;SDS011;29868;47.360;18.984;2023-09-19T08:07:13;2.28;;;1.00;;
43817;SDS011;29868;47.360;18.984;2023-09-19T08:09:40;3.85;;;1.30;;
43817;SDS011;29868;47.360;18.984;2023-09-19T08:12:06;1.42;;;1.02;;
43817;SDS011;29868;47.360;18.984;2023-09-19T08:14:36;2.60;;;1.13;;
43817;SDS011;29868;47.360;18.984;2023-09-19T08:17:02;2.85;;;1.10;;
43817;SDS011;29868;47.360;18.984;2023-09-19T08:19:30;2.00;;;1.13;;
43817;SDS011;29868;47.360;18.984;2023-09-19T08:21:57;2.63;;;1.30;;
43817;SDS011;29868;47.360;18.984;2023-09-19T08:24:29;1.98;;;1.17;;
43817;SDS011;29868;47.360;18.984;2023-09-19T08:26:55;2.50;;;1.27;;
43817;SDS011;29868;47.360;18.984;2023-09-19T08:29:22;3.22;;;1.40;;
43817;SDS011;29868;47.360;18.984;2023-09-19T08:31:55;1.98;;;1.30;;
43817;SDS011;29868;47.360;18.984;2023-09-19T08:34:22;2.00;;;1.38;;
43817;SDS011;29868;47.360;18.984;2023-09-19T08:36:49;2.15;;;1.25;;
43817;SDS011;29868;47.360;18.984;2023-09-19T08:39:22;2.47;;;1.30;;
43817;SDS011;29868;47.360;18.984;2023-09-19T08:41:48;5.05;;;1.40;;
43817;SDS011;29868;47.360;18.984;2023-09-19T08:44:14;2.97;;;1.40;;
43817;SDS011;29868;47.360;18.984;2023-09-19T08:46:41;3.53;;;1.60;;
43817;SDS011;29868;47.360;18.984;2023-09-19T08:49:11;4.57;;;1.55;;
43817;SDS011;29868;47.360;18.984;2023-09-19T08:51:56;2.65;;;1.58;;
43817;SDS011;29868;47.360;18.984;2023-09-19T08:54:35;3.47;;;1.70;;
43817;SDS011;29868;47.360;18.984;2023-09-19T08:57:06;4.72;;;2.00;;
43817;SDS011;29868;47.360;18.984;2023-09-19T08:59:39;3.42;;;2.00;;
43817;SDS011;29868;47.360;18.984;2023-09-19T09:02:12;3.33;;;1.95;;
43817;SDS011;29868;47.360;18.984;2023-09-19T09:04:40;2.75;;;1.75;;
43817;SDS011;29868;47.360;18.984;2023-09-19T09:07:10;2.88;;;1.70;;
43817;SDS011;29868;47.360;18.984;2023-09-19T09:09:37;4.00;;;2.13;;
43817;SDS011;29868;47.360;18.984;2023-09-19T09:12:07;2.97;;;1.92;;
43817;SDS011;29868;47.360;18.984;2023-09-19T09:14:40;5.25;;;1.92;;
43817;SDS011;29868;47.360;18.984;2023-09-19T09:17:10;4.20;;;2.10;;
43817;SDS011;29868;47.360;18.984;2023-09-19T09:19:35;4.47;;;2.10;;
43817;SDS011;29868;47.360;18.984;2023-09-19T09:22:08;3.83;;;2.38;;
43817;SDS011;29868;47.360;18.984;2023-09-19T09:24:34;4.88;;;2.45;;
43817;SDS011;29868;47.360;18.984;2023-09-19T09:27:03;5.03;;;2.10;;
43817;SDS011;29868;47.360;18.984;2023-09-19T09:32:29;3.10;;;2.20;;
43817;SDS011;29868;47.360;18.984;2023-09-19T09:35:00;4.55;;;2.50;;
43817;SDS011;29868;47.360;18.984;2023-09-19T09:37:29;5.65;;;2.58;;
43817;SDS011;29868;47.360;18.984;2023-09-19T09:39:56;4.28;;;2.58;;
43817;SDS011;29868;47.360;18.984;2023-09-19T09:42:44;4.88;;;2.40;;
43817;SDS011;29868;47.360;18.984;2023-09-19T09:47:43;3.83;;;2.72;;
43817;SDS011;29868;47.360;18.984;2023-09-19T09:50:27;4.85;;;2.60;;
43817;SDS011;29868;47.360;18.984;2023-09-19T09:53:28;3.38;;;2.60;;
43817;SDS011;29868;47.360;18.984;2023-09-19T09:58:34;4.63;;;2.72;;
43817;SDS011;29868;47.360;18.984;2023-09-19T10:01:02;3.75;;;2.45;;
43817;SDS011;29868;47.360;18.984;2023-09-19T10:03:35;3.80;;;2.58;;
43817;SDS011;29868;47.360;18.984;2023-09-19T10:06:06;6.82;;;2.65;;
43817;SDS011;29868;47.360;18.984;2023-09-19T10:09:05;4.03;;;2.50;;
43817;SDS011;29868;47.360;18.984;2023-09-19T10:11:35;3.97;;;2.58;;
43817;SDS011;29868;47.360;18.984;2023-09-19T10:14:04;2.83;;;2.40;;
43817;SDS011;29868;47.360;18.984;2023-09-19T10:16:35;3.85;;;2.72;;
43817;SDS011;29868;47.360;18.984;2023-09-19T10:19:05;3.97;;;2.70;;
43817;SDS011;29868;47.360;18.984;2023-09-19T10:21:34;3.97;;;2.50;;
43817;SDS011;29868;47.360;18.984;2023-09-19T10:24:01;4.88;;;2.50;;
43817;SDS011;29868;47.360;18.984;2023-09-19T10:26:32;4.05;;;2.63;;
43817;SDS011;29868;47.360;18.984;2023-09-19T10:29:01;2.80;;;2.40;;
43817;SDS011;29868;47.360;18.984;2023-09-19T10:31:29;3.25;;;2.35;;
43817;SDS011;29868;47.360;18.984;2023-09-19T10:34:00;2.53;;;2.17;;
43817;SDS011;29868;47.360;18.984;2023-09-19T10:36:29;2.80;;;2.13;;
43817;SDS011;29868;47.360;18.984;2023-09-19T10:39:00;4.05;;;2.28;;
43817;SDS011;29868;47.360;18.984;2023-09-19T10:41:32;5.60;;;2.78;;
43817;SDS011;29868;47.360;18.984;2023-09-19T10:44:02;3.67;;;2.50;;
43817;SDS011;29868;47.360;18.984;2023-09-19T10:46:31;2.95;;;2.30;;
43817;SDS011;29868;47.360;18.984;2023-09-19T10:48:59;3.35;;;2.20;;
43817;SDS011;29868;47.360;18.984;2023-09-19T10:51:25;3.00;;;2.30;;
43817;SDS011;29868;47.360;18.984;2023-09-19T10:53:58;3.38;;;2.20;;
43817;SDS011;29868;47.360;18.984;2023-09-19T10:56:30;3.67;;;2.53;;
43817;SDS011;29868;47.360;18.984;2023-09-19T10:59:09;4.85;;;2.72;;
43817;SDS011;29868;47.360;18.984;2023-09-19T11:01:47;3.30;;;2.78;;
43817;SDS011;29868;47.360;18.984;2023-09-19T11:07:08;4.82;;;2.60;;
43817;SDS011;29868;47.360;18.984;2023-09-19T11:14:56;2.70;;;2.22;;
43817;SDS011;29868;47.360;18.984;2023-09-19T11:17:31;4.45;;;2.30;;
43817;SDS011;29868;47.360;18.984;2023-09-19T11:33:21;2.08;;;1.20;;
43817;SDS011;29868;47.360;18.984;2023-09-19T11:36:04;3.17;;;1.20;;
43817;SDS011;29868;47.360;18.984;2023-09-19T11:43:50;2.38;;;1.27;;
43817;SDS011;29868;47.360;18.984;2023-09-19T11:46:16;2.13;;;1.10;;
43817;SDS011;29868;47.360;18.984;2023-09-19T11:48:47;2.40;;;1.00;;
43817;SDS011;29868;47.360;18.984;2023-09-19T11:51:17;2.25;;;1.13;;
43817;SDS011;29868;47.360;18.984;2023-09-19T11:53:58;2.78;;;1.38;;
43817;SDS011;29868;47.360;18.984;2023-09-19T11:56:28;2.30;;;1.40;;
43817;SDS011;29868;47.360;18.984;2023-09-19T11:58:54;2.10;;;1.25;;
43817;SDS011;29868;47.360;18.984;2023-09-19T12:01:22;1.83;;;1.25;;
43817;SDS011;29868;47.360;18.984;2023-09-19T12:03:56;2.47;;;1.48;;
43817;SDS011;29868;47.360;18.984;2023-09-19T12:06:24;3.17;;;1.45;;
43817;SDS011;29868;47.360;18.984;2023-09-19T12:08:51;3.22;;;1.50;;
43817;SDS011;29868;47.360;18.984;2023-09-19T12:11:19;2.95;;;1.50;;
43817;SDS011;29868;47.360;18.984;2023-09-19T12:13:46;2.25;;;1.30;;
43817;SDS011;29868;47.360;18.984;2023-09-19T12:16:17;2.58;;;1.40;;
43817;SDS011;29868;47.360;18.984;2023-09-19T12:18:47;2.97;;;1.42;;
43817;SDS011;29868;47.360;18.984;2023-09-19T12:21:50;3.38;;;1.60;;
43817;SDS011;29868;47.360;18.984;2023-09-19T12:24:11;2.58;;;1.30;;
43817;SDS011;29868;47.360;18.984;2023-09-19T12:29:11;2.42;;;1.50;;
43817;SDS011;29868;47.360;18.984;2023-09-19T12:31:47;2.63;;;1.40;;
43817;SDS011;29868;47.360;18.984;2023-09-19T12:34:28;3.67;;;1.60;;
43817;SDS011;29868;47.360;18.984;2023-09-19T12:39:40;1.98;;;1.30;;
43817;SDS011;29868;47.360;18.984;2023-09-19T12:42:08;6.30;;;3.50;;
43817;SDS011;29868;47.360;18.984;2023-09-19T12:44:40;2.38;;;1.42;;
43817;SDS011;29868;47.360;18.984;2023-09-19T12:47:09;2.28;;;1.30;;
43817;SDS011;29868;47.360;18.984;2023-09-19T12:49:35;2.65;;;1.40;;
43817;SDS011;29868;47.360;18.984;2023-09-19T12:52:01;4.20;;;1.60;;
43817;SDS011;29868;47.360;18.984;2023-09-19T12:54:37;3.42;;;1.42;;
43817;SDS011;29868;47.360;18.984;2023-09-19T12:57:06;2.83;;;1.42;;
43817;SDS011;29868;47.360;18.984;2023-09-19T12:59:31;3.60;;;1.35;;
43817;SDS011;29868;47.360;18.984;2023-09-19T13:02:03;2.63;;;1.45;;
43817;SDS011;29868;47.360;18.984;2023-09-19T13:04:31;3.00;;;1.45;;
43817;SDS011;29868;47.360;18.984;2023-09-19T13:06:58;2.58;;;1.50;;
43817;SDS011;29868;47.360;18.984;2023-09-19T13:09:26;3.92;;;1.33;;
43817;SDS011;29868;47.360;18.984;2023-09-19T13:15:07;4.85;;;1.50;;
43817;SDS011;29868;47.360;18.984;2023-09-19T13:17:44;3.30;;;1.33;;
43817;SDS011;29868;47.360;18.984;2023-09-19T13:23:35;3.95;;;1.30;;
43817;SDS011;29868;47.360;18.984;2023-09-19T13:26:01;3.08;;;1.20;;
43817;SDS011;29868;47.360;18.984;2023-09-19T13:28:26;2.75;;;1.60;;
43817;SDS011;29868;47.360;18.984;2023-09-19T13:30:53;1.48;;;1.00;;
43817;SDS011;29868;47.360;18.984;2023-09-19T13:33:19;4.70;;;1.40;;
43817;SDS011;29868;47.360;18.984;2023-09-19T13:35:46;1.63;;;1.10;;
43817;SDS011;29868;47.360;18.984;2023-09-19T13:38:13;2.90;;;1.23;;
43817;SDS011;29868;47.360;18.984;2023-09-19T13:40:39;2.92;;;1.40;;
43817;SDS011;29868;47.360;18.984;2023-09-19T13:43:07;3.47;;;1.40;;
43817;SDS011;29868;47.360;18.984;2023-09-19T13:45:33;1.80;;;1.10;;
43817;SDS011;29868;47.360;18.984;2023-09-19T13:47:59;2.78;;;1.50;;
43817;SDS011;29868;47.360;18.984;2023-09-19T13:50:24;2.80;;;1.30;;
43817;SDS011;29868;47.360;18.984;2023-09-19T13:52:54;2.67;;;1.35;;
43817;SDS011;29868;47.360;18.984;2023-09-19T13:55:20;1.70;;;1.20;;
43817;SDS011;29868;47.360;18.984;2023-09-19T13:57:48;2.78;;;1.40;;
43817;SDS011;29868;47.360;18.984;2023-09-19T14:00:19;2.22;;;1.55;;
43817;SDS011;29868;47.360;18.984;2023-09-19T14:02:45;2.63;;;1.40;;
43817;SDS011;29868;47.360;18.984;2023-09-19T14:05:12;3.10;;;1.30;;
43817;SDS011;29868;47.360;18.984;2023-09-19T14:07:40;2.10;;;1.20;;
43817;SDS011;29868;47.360;18.984;2023-09-19T14:10:06;5.05;;;1.60;;
43817;SDS011;29868;47.360;18.984;2023-09-19T14:12:33;3.47;;;1.55;;
43817;SDS011;29868;47.360;18.984;2023-09-19T14:14:59;2.80;;;1.23;;
43817;SDS011;29868;47.360;18.984;2023-09-19T14:17:25;3.00;;;1.48;;
43817;SDS011;29868;47.360;18.984;2023-09-19T14:19:51;2.10;;;1.10;;
43817;SDS011;29868;47.360;18.984;2023-09-19T14:22:17;3.00;;;1.40;;
43817;SDS011;29868;47.360;18.984;2023-09-19T14:24:42;2.92;;;1.30;;
43817;SDS011;29868;47.360;18.984;2023-09-19T14:27:08;2.92;;;1.40;;
43817;SDS011;29868;47.360;18.984;2023-09-19T14:29:34;1.90;;;1.20;;
43817;SDS011;29868;47.360;18.984;2023-09-19T14:32:00;2.55;;;1.30;;
43817;SDS011;29868;47.360;18.984;2023-09-19T14:34:25;3.88;;;1.40;;
43817;SDS011;29868;47.360;18.984;2023-09-19T14:36:51;1.67;;;1.13;;
43817;SDS011;29868;47.360;18.984;2023-09-19T14:39:16;4.07;;;1.35;;
43817;SDS011;29868;47.360;18.984;2023-09-19T14:41:42;3.42;;;1.40;;
43817;SDS011;29868;47.360;18.984;2023-09-19T14:44:07;2.83;;;1.20;;
43817;SDS011;29868;47.360;18.984;2023-09-19T14:46:35;2.78;;;1.58;;
43817;SDS011;29868;47.360;18.984;2023-09-19T14:49:01;2.92;;;1.40;;
43817;SDS011;29868;47.360;18.984;2023-09-19T14:51:29;3.22;;;1.65;;
43817;SDS011;29868;47.360;18.984;2023-09-19T14:53:54;2.63;;;1.50;;
43817;SDS011;29868;47.360;18.984;2023-09-19T14:56:20;2.83;;;1.20;;
43817;SDS011;29868;47.360;18.984;2023-09-19T14:58:47;1.85;;;1.20;;
43817;SDS011;29868;47.360;18.984;2023-09-19T15:01:13;2.53;;;1.30;;
43817;SDS011;29868;47.360;18.984;2023-09-19T15:03:39;2.65;;;1.50;;
43817;SDS011;29868;47.360;18.984;2023-09-19T15:06:06;2.70;;;1.50;;
43817;SDS011;29868;47.360;18.984;2023-09-19T15:08:39;2.78;;;1.40;;
43817;SDS011;29868;47.360;18.984;2023-09-19T15:11:05;2.30;;;1.30;;
43817;SDS011;29868;47.360;18.984;2023-09-19T15:13:32;3.58;;;1.70;;
43817;SDS011;29868;47.360;18.984;2023-09-19T15:16:02;2.55;;;1.30;;
43817;SDS011;29868;47.360;18.984;2023-09-19T15:18:34;2.67;;;1.50;;
43817;SDS011;29868;47.360;18.984;2023-09-19T15:21:07;2.83;;;1.48;;
43817;SDS011;29868;47.360;18.984;2023-09-19T15:23:35;5.13;;;1.60;;
43817;SDS011;29868;47.360;18.984;2023-09-19T15:26:06;2.40;;;1.45;;
43817;SDS011;29868;47.360;18.984;2023-09-19T15:28:36;4.05;;;1.65;;
43817;SDS011;29868;47.360;18.984;2023-09-19T15:33:29;2.42;;;1.60;;
43817;SDS011;29868;47.360;18.984;2023-09-19T15:41:34;4.22;;;1.60;;
43817;SDS011;29868;47.360;18.984;2023-09-19T15:44:04;2.75;;;1.42;;
43817;SDS011;29868;47.360;18.984;2023-09-19T15:46:35;2.88;;;1.60;;
43817;SDS011;29868;47.360;18.984;2023-09-19T15:49:02;2.58;;;1.50;;
43817;SDS011;29868;47.360;18.984;2023-09-19T15:51:28;3.30;;;1.45;;